Time;durP1;ratioP1;P1;durP2;ratioP2;P2;SDS_P1;SDS_P2;PMS_P1;PMS_P2;Temp;Humidity;BMP_temperature;BMP_pressure;BME280_temperature;BME280_humidity;BME280_pressure;Samples;Min_cycle;Max_cycle;Signal;HPM_P1;HPM_P2
2021/04/15 00:01:25;;;;;;;7.80;7.10;;;;;;;0.76;84.69;99191.29;2241573;79;21062;-82
2021/04/15 00:04:26;;;;;;;7.70;6.43;;;;;;;0.74;84.69;99183.49;2241960;79;21105;-80
2021/04/15 00:07:27;;;;;;;7.77;6.70;;;;;;;0.72;84.83;99186.37;2241759;79;21070;-81
2021/04/15 00:10:28;;;;;;;10.20;7.60;;;;;;;0.69;85.11;99187.89;2241336;79;21152;-82
2021/04/15 00:13:29;;;;;;;8.13;6.37;;;;;;;0.66;84.89;99187.72;2227756;80;21082;-79
2021/04/15 00:16:30;;;;;;;5.77;5.27;;;;;;;0.64;84.95;99182.09;2227379;80;21066;-81
2021/04/15 00:19:31;;;;;;;7.13;5.67;;;;;;;0.64;85.34;99185.95;2227674;80;21129;-81
2021/04/15 00:22:32;;;;;;;7.10;6.10;;;;;;;0.61;85.27;99172.94;2227658;80;21204;-80
2021/04/15 00:25:33;;;;;;;5.70;5.20;;;;;;;0.60;85.09;99177.59;2227932;80;21082;-80
2021/04/15 00:28:36;;;;;;;5.53;4.87;;;;;;;0.61;85.13;99171.66;2227947;80;21173;-82
2021/04/15 00:31:37;;;;;;;6.20;5.60;;;;;;;0.60;85.30;99169.88;2228165;80;21090;-82
2021/04/15 00:34:38;;;;;;;7.37;5.10;;;;;;;0.59;85.46;99167.23;2228216;80;21352;-82
2021/04/15 00:37:39;;;;;;;6.40;5.80;;;;;;;0.57;85.33;99162.00;2227886;80;21101;-81
2021/04/15 00:40:40;;;;;;;5.73;5.17;;;;;;;0.55;85.29;99160.16;2228252;80;21110;-80
2021/04/15 00:43:41;;;;;;;6.07;5.40;;;;;;;0.54;85.45;99161.83;2228266;80;21142;-81
2021/04/15 00:46:42;;;;;;;6.20;5.00;;;;;;;0.55;85.52;99157.58;2227836;80;21106;-80
2021/04/15 00:49:44;;;;;;;6.00;5.10;;;;;;;0.54;85.62;99153.24;2227994;79;21129;-80
2021/04/15 00:52:45;;;;;;;4.87;4.47;;;;;;;0.54;85.56;99151.56;2228066;80;21114;-80
2021/04/15 00:55:46;;;;;;;6.27;5.07;;;;;;;0.54;85.56;99154.13;2227984;80;21114;-82
2021/04/15 00:58:47;;;;;;;5.23;4.73;;;;;;;0.54;85.43;99156.70;2228117;80;21094;-82
2021/04/15 01:01:48;;;;;;;4.93;4.43;;;;;;;0.55;85.46;99153.73;2227843;80;21125;-82
2021/04/15 01:04:49;;;;;;;4.80;4.40;;;;;;;0.55;85.34;99150.77;2228502;80;21081;-81
2021/04/15 01:07:50;;;;;;;5.93;4.60;;;;;;;0.58;85.38;99151.33;2228301;80;21114;-81
2021/04/15 01:10:51;;;;;;;4.93;4.33;;;;;;;0.58;85.34;99150.93;2228781;79;21126;-80
2021/04/15 01:13:53;;;;;;;4.63;4.23;;;;;;;0.58;85.28;99139.77;2228309;80;21114;-81
2021/04/15 01:16:54;;;;;;;5.53;4.53;;;;;;;0.58;85.41;99150.93;2228388;80;21113;-80
2021/04/15 01:19:55;;;;;;;4.23;3.83;;;;;;;0.56;85.41;99148.67;2228022;80;21106;-80
2021/04/15 01:22:56;;;;;;;4.40;4.00;;;;;;;0.54;85.40;99142.57;2228544;80;21125;-81
2021/04/15 01:25:57;;;;;;;4.40;4.00;;;;;;;0.53;85.35;99140.80;2228292;79;21101;-80
2021/04/15 01:29:00;;;;;;;4.47;4.07;;;;;;;0.52;85.46;99126.19;2228561;80;21133;-82
2021/04/15 01:32:01;;;;;;;5.20;4.30;;;;;;;0.53;85.34;99133.09;2229036;80;21070;-82
2021/04/15 01:35:02;;;;;;;4.30;4.00;;;;;;;0.53;85.54;99134.38;2228492;80;21240;-82
2021/04/15 01:38:03;;;;;;;6.13;5.37;;;;;;;0.54;85.47;99132.69;2228130;80;21101;-82
2021/04/15 01:41:04;;;;;;;5.70;4.83;;;;;;;0.53;85.35;99133.09;2228241;80;21094;-80
2021/04/15 01:44:05;;;;;;;4.80;4.40;;;;;;;0.53;85.39;99125.39;2227947;80;21410;-81
2021/04/15 01:47:06;;;;;;;4.70;4.30;;;;;;;0.55;85.37;99126.76;2228488;80;21114;-83
2021/04/15 01:50:07;;;;;;;4.47;4.07;;;;;;;0.52;85.48;99119.77;2228167;80;21149;-81
2021/04/15 01:53:08;;;;;;;4.27;3.93;;;;;;;0.52;85.51;99125.30;2228167;80;21388;-81
2021/04/15 01:56:10;;;;;;;3.97;3.67;;;;;;;0.50;85.67;99117.91;2228053;80;21094;-82
2021/04/15 01:59:11;;;;;;;5.03;4.00;;;;;;;0.49;85.55;99119.59;2228266;80;21122;-82
2021/04/15 02:02:12;;;;;;;4.10;3.80;;;;;;;0.47;85.57;99116.06;2228103;80;21110;-82
2021/04/15 02:05:13;;;;;;;4.80;4.40;;;;;;;0.47;85.51;99111.32;2227674;80;21372;-82
2021/04/15 02:08:14;;;;;;;4.53;4.13;;;;;;;0.48;85.57;99110.52;2227985;80;21173;-82
2021/04/15 02:11:15;;;;;;;4.20;3.90;;;;;;;0.48;85.31;99106.27;2227839;79;21204;-81
2021/04/15 02:14:16;;;;;;;4.47;4.07;;;;;;;0.49;85.56;99104.19;2228112;80;21090;-82
2021/04/15 02:17:17;;;;;;;4.90;4.50;;;;;;;0.50;85.45;99103.39;2227993;80;21110;-83
2021/04/15 02:20:18;;;;;;;5.00;4.60;;;;;;;0.51;85.45;99101.30;2228109;80;21086;-81
2021/04/15 02:23:19;;;;;;;5.20;4.80;;;;;;;0.50;85.48;99105.95;2227801;80;21133;-80
2021/04/15 02:26:20;;;;;;;5.17;4.77;;;;;;;0.50;85.49;99105.07;2228287;80;21217;-83
2021/04/15 02:29:21;;;;;;;5.20;4.70;;;;;;;0.50;85.35;99097.36;2227911;80;21153;-84
2021/04/15 02:32:22;;;;;;;5.67;5.17;;;;;;;0.51;85.56;99095.28;2227846;80;21102;-84
2021/04/15 02:35:23;;;;;;;5.23;4.83;;;;;;;0.50;85.53;99100.82;2227967;79;21220;-82
2021/04/15 02:38:24;;;;;;;5.37;4.90;;;;;;;0.50;85.45;99093.11;2228333;79;21081;-82
2021/04/15 02:41:25;;;;;;;5.40;5.00;;;;;;;0.50;85.48;99094.39;2228024;80;21074;-82
2021/04/15 02:44:28;;;;;;;4.90;4.50;;;;;;;0.52;85.50;99093.20;2228105;80;21109;-82
2021/04/15 02:47:29;;;;;;;6.10;5.50;;;;;;;0.52;85.50;99095.36;2227578;80;21408;-82
2021/04/15 02:50:30;;;;;;;5.67;5.17;;;;;;;0.51;85.61;99094.00;2227699;79;21142;-81
2021/04/15 02:53:31;;;;;;;6.70;6.10;;;;;;;0.51;85.45;99091.43;2227923;80;21098;-81
2021/04/15 02:56:32;;;;;;;7.30;6.53;;;;;;;0.48;85.59;99087.41;2227971;80;21098;-82
2021/04/15 02:59:34;;;;;;;7.87;7.07;;;;;;;0.48;85.60;99085.72;2227822;80;21220;-82
2021/04/15 03:02:35;;;;;;;7.20;6.50;;;;;;;0.47;85.41;99080.10;2227211;80;21109;-81
2021/04/15 03:05:36;;;;;;;8.17;7.47;;;;;;;0.50;85.53;99085.81;2227926;80;21105;-81
2021/04/15 03:08:37;;;;;;;7.43;6.83;;;;;;;0.51;85.55;99086.30;2227461;80;21106;-81
2021/04/15 03:11:38;;;;;;;7.37;6.77;;;;;;;0.50;85.48;99079.39;2227332;79;21118;-82
2021/04/15 03:14:39;;;;;;;6.77;6.27;;;;;;;0.49;85.62;99081.07;2227537;80;21102;-81
2021/04/15 03:17:40;;;;;;;7.57;6.83;;;;;;;0.48;85.53;99081.88;2227147;80;21113;-81
2021/04/15 03:20:41;;;;;;;7.80;7.07;;;;;;;0.48;85.58;99083.55;2227238;80;21212;-81
2021/04/15 03:23:42;;;;;;;7.40;6.70;;;;;;;0.49;85.51;99078.50;2227277;80;21199;-81
2021/04/15 03:26:43;;;;;;;7.33;6.73;;;;;;;0.50;85.56;99083.23;2227060;79;21102;-81
2021/04/15 03:29:44;;;;;;;7.90;7.03;;;;;;;0.50;85.50;99078.98;2226956;80;21430;-81
2021/04/15 03:32:45;;;;;;;8.23;7.43;;;;;;;0.48;85.59;99074.56;2226681;79;21094;-81
2021/04/15 03:35:46;;;;;;;8.23;7.20;;;;;;;0.48;85.61;99082.27;2226929;80;21407;-80
2021/04/15 03:38:47;;;;;;;8.27;7.47;;;;;;;0.47;85.64;99082.67;2226629;79;21102;-80
2021/04/15 03:41:48;;;;;;;8.10;7.40;;;;;;;0.48;85.64;99079.30;2226749;80;21220;-81
2021/04/15 03:44:49;;;;;;;8.13;7.50;;;;;;;0.48;85.57;99079.30;2226891;80;21078;-81
2021/04/15 03:47:50;;;;;;;8.03;7.33;;;;;;;0.50;85.55;99077.70;2226703;80;21063;-82
2021/04/15 03:50:51;;;;;;;8.87;8.07;;;;;;;0.50;85.58;99084.13;2226769;80;21102;-83
2021/04/15 03:53:52;;;;;;;8.40;7.60;;;;;;;0.48;85.61;99076.73;2226728;80;21407;-81
2021/04/15 03:56:54;;;;;;;9.37;8.37;;;;;;;0.50;85.67;99087.09;2226787;80;21113;-81
2021/04/15 03:59:55;;;;;;;8.00;7.30;;;;;;;0.50;85.59;99080.27;2226761;80;21101;-82
2021/04/15 04:02:56;;;;;;;7.37;6.77;;;;;;;0.53;85.52;99085.58;2227041;80;21098;-82
2021/04/15 04:05:57;;;;;;;8.50;7.80;;;;;;;0.53;85.68;99089.43;2227122;80;21113;-82
2021/04/15 04:08:58;;;;;;;7.87;7.17;;;;;;;0.52;85.38;99086.78;2226793;80;21106;-81
2021/04/15 04:11:59;;;;;;;8.27;7.47;;;;;;;0.52;85.52;99090.23;2231771;79;21113;-81
2021/04/15 04:15:00;;;;;;;8.37;7.57;;;;;;;0.53;85.43;99085.58;2258406;79;21089;-80
2021/04/15 04:18:01;;;;;;;8.50;7.70;;;;;;;0.54;85.42;99086.06;2258198;79;21073;-80
2021/04/15 04:21:03;;;;;;;8.47;7.67;;;;;;;0.56;85.25;99089.59;2257990;79;21096;-78
2021/04/15 04:24:04;;;;;;;9.10;8.20;;;;;;;0.58;85.25;99087.11;2258378;78;21053;-82
2021/04/15 04:27:05;;;;;;;8.60;7.90;;;;;;;0.59;85.32;99083.74;2258476;78;21088;-82
2021/04/15 04:30:06;;;;;;;8.03;7.23;;;;;;;0.57;85.51;99088.80;2258596;79;21144;-83
2021/04/15 04:33:07;;;;;;;8.23;7.10;;;;;;;0.57;85.42;99087.91;2258556;79;21204;-82
2021/04/15 04:36:08;;;;;;;8.03;7.33;;;;;;;0.57;85.60;99092.65;2258257;78;21359;-81
2021/04/15 04:39:09;;;;;;;8.23;7.43;;;;;;;0.58;85.42;99087.99;2258322;79;21410;-81
2021/04/15 04:42:10;;;;;;;7.10;6.50;;;;;;;0.60;85.43;99083.83;2258752;79;21117;-80
2021/04/15 04:45:11;;;;;;;8.13;7.43;;;;;;;0.60;85.42;99097.95;2258299;79;21116;-82
2021/04/15 04:48:12;;;;;;;7.80;7.10;;;;;;;0.61;85.25;99097.16;2258237;79;21097;-80
2021/04/15 04:51:13;;;;;;;7.73;7.10;;;;;;;0.62;85.40;99088.64;2259442;79;21093;-81
2021/04/15 04:54:16;;;;;;;7.50;6.90;;;;;;;0.63;85.28;99090.41;2259240;79;21116;-82
2021/04/15 04:57:17;;;;;;;8.47;7.67;;;;;;;0.66;85.19;99088.81;2259052;79;21123;-82
2021/04/15 05:00:18;;;;;;;7.83;7.13;;;;;;;0.70;85.16;99089.46;2259092;78;21141;-81
2021/04/15 05:03:19;;;;;;;7.43;6.83;;;;;;;0.74;85.17;99091.39;2258462;79;21084;-80
2021/04/15 05:06:20;;;;;;;7.13;6.47;;;;;;;0.75;84.99;99089.31;2258941;79;21117;-84
2021/04/15 05:09:21;;;;;;;6.63;6.03;;;;;;;0.77;84.94;99090.28;2259897;79;21116;-81
2021/04/15 05:12:22;;;;;;;7.17;6.47;;;;;;;0.79;84.97;99087.39;2253092;79;21236;-80
2021/04/15 05:15:23;;;;;;;6.43;5.93;;;;;;;0.81;84.89;99081.53;2227410;80;21074;-80
2021/04/15 05:18:24;;;;;;;6.33;5.70;;;;;;;0.87;84.75;99084.86;2227392;80;21113;-84
2021/04/15 05:21:25;;;;;;;5.97;5.37;;;;;;;0.89;84.54;99085.83;2227410;80;21090;-82
2021/04/15 05:24:26;;;;;;;6.30;4.87;;;;;;;0.93;84.46;99082.62;2227741;80;21106;-83
2021/04/15 05:27:28;;;;;;;5.57;4.97;;;;;;;0.95;84.34;99083.58;2227588;80;21082;-83
2021/04/15 05:30:29;;;;;;;5.67;5.17;;;;;;;0.95;84.27;99088.72;2227129;79;21129;-83
2021/04/15 05:33:30;;;;;;;5.90;5.20;;;;;;;0.99;84.21;99086.80;2227080;80;21375;-84
2021/04/15 05:36:31;;;;;;;6.00;5.47;;;;;;;1.01;84.16;99086.87;2227187;80;21407;-84
2021/04/15 05:39:33;;;;;;;5.97;5.33;;;;;;;1.02;84.10;99080.53;2227249;79;21118;-85
2021/04/15 05:42:34;;;;;;;5.40;4.93;;;;;;;1.06;83.95;99082.46;2226935;79;21145;-84
2021/04/15 05:45:35;;;;;;;5.37;4.93;;;;;;;1.06;83.87;99077.32;2227444;79;21101;-84
2021/04/15 05:48:36;;;;;;;5.63;5.07;;;;;;;1.09;83.81;99083.91;2227387;80;21099;-84
2021/04/15 05:51:37;;;;;;;7.07;6.40;;;;;;;1.11;83.74;99081.02;2227172;79;21224;-83
2021/04/15 05:54:38;;;;;;;6.83;6.23;;;;;;;1.16;83.65;99086.40;2227102;80;21404;-82
2021/04/15 05:57:39;;;;;;;6.13;5.63;;;;;;;1.17;83.50;99083.02;2227276;80;21070;-83
2021/04/15 06:00:40;;;;;;;6.50;6.00;;;;;;;1.17;83.40;99074.91;2227007;80;21221;-83
2021/04/15 06:03:41;;;;;;;6.37;5.87;;;;;;;1.17;83.51;99083.02;2227146;80;21368;-83
2021/04/15 06:06:42;;;;;;;7.33;6.73;;;;;;;1.18;83.35;99075.39;2226973;80;21128;-82
2021/04/15 06:09:43;;;;;;;7.77;7.07;;;;;;;1.19;83.33;99072.41;2227114;80;21173;-83
2021/04/15 06:12:44;;;;;;;9.77;8.90;;;;;;;1.23;83.34;99070.48;2227060;79;21118;-83
2021/04/15 06:15:46;;;;;;;11.23;10.03;;;;;;;1.23;83.27;99067.51;2227088;80;21090;-82
2021/04/15 06:18:47;;;;;;;11.77;10.57;;;;;;;1.31;83.17;99073.45;2226979;80;21102;-82
2021/04/15 06:21:48;;;;;;;11.27;10.00;;;;;;;1.36;83.03;99066.45;2226948;80;21090;-83
2021/04/15 06:24:49;;;;;;;11.47;10.13;;;;;;;1.39;82.89;99064.44;2226934;80;21090;-83
2021/04/15 06:27:50;;;;;;;28.67;22.27;;;;;;;1.39;82.87;99065.33;2226901;80;21118;-82
2021/04/15 06:30:51;;;;;;;12.60;11.30;;;;;;;1.39;82.86;99065.33;2226709;80;21145;-83
2021/04/15 06:33:52;;;;;;;11.70;10.57;;;;;;;1.40;82.61;99068.38;2227063;80;21083;-84
2021/04/15 06:36:53;;;;;;;32.27;16.00;;;;;;;1.39;82.72;99062.75;2227028;80;21104;-82
2021/04/15 06:39:55;;;;;;;12.20;10.13;;;;;;;1.43;82.78;99060.81;2227118;80;21066;-81
2021/04/15 06:42:59;;;;;;;10.77;9.77;;;;;;;1.40;82.53;99054.23;2227142;80;21236;-82
2021/04/15 06:46:01;;;;;;;13.25;11.95;;;;;;;1.42;82.67;99058.16;2227270;80;21537;-82
2021/04/15 06:49:02;;;;;;;13.07;11.30;;;;;;;1.42;82.63;99055.19;2227082;79;21141;-82
2021/04/15 06:52:03;;;;;;;14.83;12.37;;;;;;;1.41;82.58;99056.00;2227106;79;21483;-83
2021/04/15 06:55:04;;;;;;;14.77;13.17;;;;;;;1.41;82.57;99061.14;2227090;80;21507;-81
2021/04/15 06:58:05;;;;;;;19.07;15.33;;;;;;;1.41;82.47;99056.40;2226894;80;21376;-83
2021/04/15 07:01:07;;;;;;;30.23;22.60;;;;;;;1.42;82.52;99057.77;2226260;80;21106;-82
2021/04/15 07:04:08;;;;;;;16.80;14.67;;;;;;;1.47;82.46;99058.00;2226865;80;21094;-83
2021/04/15 07:07:09;;;;;;;14.43;12.83;;;;;;;1.54;82.29;99065.22;2226793;80;21387;-82
2021/04/15 07:10:10;;;;;;;17.10;12.70;;;;;;;1.55;82.31;99064.41;2226781;80;21153;-83
2021/04/15 07:13:11;;;;;;;15.50;12.57;;;;;;;1.63;82.23;99059.25;2226482;79;21271;-82
2021/04/15 07:16:12;;;;;;;13.27;10.90;;;;;;;1.71;82.12;99061.80;2248323;79;21310;-82
2021/04/15 07:19:14;;;;;;;14.10;12.53;;;;;;;1.80;81.82;99060.12;2258476;79;21061;-82
2021/04/15 07:22:15;;;;;;;10.37;9.37;;;;;;;1.89;81.85;99064.44;2258509;79;21105;-82
2021/04/15 07:25:16;;;;;;;12.67;10.00;;;;;;;1.86;81.32;99069.03;2258587;79;21105;-81
2021/04/15 07:28:17;;;;;;;13.53;10.97;;;;;;;1.84;81.20;99068.06;2258635;79;21089;-82
2021/04/15 07:31:18;;;;;;;14.37;12.10;;;;;;;1.85;81.40;99068.55;2258651;79;21120;-83
2021/04/15 07:34:19;;;;;;;11.90;10.70;;;;;;;1.88;81.30;99063.55;2258851;79;21251;-82
2021/04/15 07:37:21;;;;;;;12.57;11.37;;;;;;;1.86;81.11;99066.45;2258705;79;21109;-81
2021/04/15 07:40:22;;;;;;;13.30;11.37;;;;;;;1.87;81.29;99060.91;2258667;79;21101;-82
2021/04/15 07:43:23;;;;;;;21.27;14.47;;;;;;;1.88;81.09;99068.70;2258624;79;21123;-82
2021/04/15 07:46:24;;;;;;;10.10;8.87;;;;;;;1.94;81.21;99065.95;2258621;79;21092;-80
2021/04/15 07:49:25;;;;;;;13.20;10.50;;;;;;;2.00;80.83;99065.84;2258669;79;21129;-81
2021/04/15 07:52:28;;;;;;;10.33;9.43;;;;;;;1.99;80.78;99061.50;2258880;79;21100;-81
2021/04/15 07:55:29;;;;;;;9.67;8.87;;;;;;;2.06;80.91;99066.55;2259344;79;21199;-80
2021/04/15 07:58:31;;;;;;;8.67;7.80;;;;;;;2.16;81.00;99068.34;2259041;79;21100;-81
2021/04/15 08:01:32;;;;;;;9.63;8.63;;;;;;;2.22;80.58;99066.06;2258659;79;21378;-80
2021/04/15 08:04:33;;;;;;;15.43;13.07;;;;;;;2.31;80.41;99069.48;2258634;78;21097;-81
2021/04/15 08:07:34;;;;;;;21.93;14.67;;;;;;;2.37;80.15;99067.61;2258545;78;21387;-80
2021/04/15 08:10:35;;;;;;;14.03;11.17;;;;;;;2.40;80.02;99067.75;2259117;79;21117;-82
2021/04/15 08:13:36;;;;;;;15.70;13.67;;;;;;;2.43;79.92;99067.48;2258825;79;21170;-80
2021/04/15 08:16:37;;;;;;;13.73;11.90;;;;;;;2.52;79.81;99068.33;2258800;79;21117;-81
2021/04/15 08:19:38;;;;;;;9.97;8.80;;;;;;;2.49;79.39;99066.89;2258422;79;21331;-80
2021/04/15 08:22:39;;;;;;;7.83;7.07;;;;;;;2.48;79.23;99069.88;2258477;79;21101;-80
2021/04/15 08:25:40;;;;;;;8.80;7.70;;;;;;;2.53;79.24;99072.27;2258533;79;21096;-80
2021/04/15 08:28:42;;;;;;;11.77;9.53;;;;;;;2.55;79.23;99068.06;2258626;79;21161;-79
2021/04/15 08:31:47;;;;;;;10.17;8.50;;;;;;;2.61;79.25;99066.62;2258505;79;21167;-81
2021/04/15 08:34:48;;;;;;;8.40;7.60;;;;;;;2.73;79.47;99063.31;2258713;79;21082;-80
2021/04/15 08:37:50;;;;;;;7.83;7.03;;;;;;;2.83;79.09;99065.50;2258463;78;21371;-82
2021/04/15 08:40:51;;;;;;;7.73;7.03;;;;;;;2.87;78.86;99064.42;2258437;79;21100;-79
2021/04/15 08:43:52;;;;;;;9.40;8.10;;;;;;;2.86;78.54;99067.81;2258076;79;21132;-80
2021/04/15 08:46:53;;;;;;;8.00;7.20;;;;;;;2.93;78.93;99065.11;2258507;79;21089;-80
2021/04/15 08:49:55;;;;;;;8.33;7.37;;;;;;;2.93;78.44;99066.39;2258835;79;21183;-79
2021/04/15 08:52:57;;;;;;;9.00;8.13;;;;;;;2.93;78.69;99065.11;2258700;79;21389;-80
2021/04/15 08:55:58;;;;;;;9.07;8.00;;;;;;;2.97;78.50;99060.97;2258740;79;21097;-80
2021/04/15 08:58:59;;;;;;;8.17;7.47;;;;;;;3.05;78.79;99072.10;2258561;79;21485;-81
2021/04/15 09:02:00;;;;;;;9.77;8.63;;;;;;;3.14;78.64;99065.19;2258650;79;21069;-80
2021/04/15 09:05:01;;;;;;;11.73;10.53;;;;;;;3.18;78.35;99063.21;2258630;79;21103;-79
2021/04/15 09:08:02;;;;;;;9.23;8.33;;;;;;;3.21;77.98;99062.06;2258594;79;21057;-80
2021/04/15 09:11:04;;;;;;;11.60;10.43;;;;;;;3.31;78.12;99061.64;2259001;79;21148;-80
2021/04/15 09:14:05;;;;;;;10.17;9.27;;;;;;;3.33;77.42;99063.89;2258668;79;21543;-80
2021/04/15 09:17:08;;;;;;;9.77;8.87;;;;;;;3.32;77.74;99064.70;2258539;79;21156;-79
2021/04/15 09:20:10;;;;;;;7.87;7.17;;;;;;;3.36;77.90;99061.84;2258462;78;21112;-79
2021/04/15 09:23:11;;;;;;;8.20;7.40;;;;;;;3.37;77.29;99060.62;2258435;79;21067;-79
2021/04/15 09:26:12;;;;;;;7.47;6.77;;;;;;;3.33;77.64;99061.71;2258667;79;21101;-79
2021/04/15 09:29:14;;;;;;;9.60;7.80;;;;;;;3.38;77.63;99062.80;2258467;79;21454;-80
2021/04/15 09:32:15;;;;;;;9.77;8.53;;;;;;;3.39;77.37;99060.69;2258341;78;21212;-80
2021/04/15 09:35:16;;;;;;;10.10;9.10;;;;;;;3.38;77.76;99065.38;2258557;79;21398;-78
2021/04/15 09:38:17;;;;;;;8.60;7.83;;;;;;;3.37;77.49;99061.03;2258320;79;21092;-79
2021/04/15 09:41:18;;;;;;;8.77;7.83;;;;;;;3.37;77.49;99061.03;2258337;79;21199;-79
2021/04/15 09:44:19;;;;;;;13.77;8.67;;;;;;;3.35;77.59;99066.53;2258515;78;21117;-80
2021/04/15 09:47:20;;;;;;;14.43;9.80;;;;;;;3.31;77.89;99064.63;2258461;79;21104;-79
2021/04/15 09:50:21;;;;;;;10.10;9.03;;;;;;;3.27;77.55;99066.61;2258332;79;21375;-80
2021/04/15 09:53:23;;;;;;;9.43;8.53;;;;;;;3.26;77.76;99064.44;2258728;79;21081;-78
2021/04/15 09:56:24;;;;;;;11.13;10.03;;;;;;;3.35;77.72;99061.38;2258670;78;21170;-79
2021/04/15 09:59:25;;;;;;;21.43;14.63;;;;;;;3.37;77.78;99057.16;2258558;79;21120;-80
2021/04/15 10:02:26;;;;;;;10.17;9.03;;;;;;;3.43;77.64;99061.30;2257703;79;21215;-78
2021/04/15 10:05:27;;;;;;;12.43;9.47;;;;;;;3.55;77.52;99067.02;2258106;78;21112;-79
2021/04/15 10:08:28;;;;;;;9.33;8.20;;;;;;;3.60;77.67;99060.77;2258200;79;21111;-80
2021/04/15 10:11:29;;;;;;;15.03;11.33;;;;;;;3.73;77.43;99054.89;2258754;78;21128;-79
2021/04/15 10:14:32;;;;;;;12.03;10.70;;;;;;;3.84;77.56;99055.34;2258439;79;21395;-80
2021/04/15 10:17:33;;;;;;;13.33;11.43;;;;;;;3.92;76.92;99051.77;2258471;79;21152;-79
2021/04/15 10:20:35;;;;;;;17.63;12.73;;;;;;;3.99;77.08;99050.80;2258628;79;21105;-79
2021/04/15 10:23:36;;;;;;;11.37;9.77;;;;;;;4.08;76.62;99051.17;2258654;79;21112;-81
2021/04/15 10:26:37;;;;;;;13.67;11.20;;;;;;;4.05;76.36;99055.33;2258535;79;21101;-80
2021/04/15 10:29:38;;;;;;;11.13;10.03;;;;;;;4.14;77.23;99051.42;2258133;79;21125;-81
2021/04/15 10:32:39;;;;;;;9.63;8.33;;;;;;;4.22;76.13;99049.14;2258878;79;21108;-78
2021/04/15 10:35:42;;;;;;;8.93;8.10;;;;;;;4.18;76.48;99044.67;2258601;79;21206;-79
2021/04/15 10:38:43;;;;;;;10.70;9.63;;;;;;;4.23;76.57;99043.56;2258351;79;21128;-80
2021/04/15 10:41:44;;;;;;;8.93;8.03;;;;;;;4.35;76.43;99038.91;2258274;79;21077;-78
2021/04/15 10:44:46;;;;;;;13.13;11.83;;;;;;;4.32;75.56;99041.34;2257947;79;21128;-78
2021/04/15 10:47:47;;;;;;;9.63;8.63;;;;;;;4.24;76.25;99041.45;2258108;79;21235;-79
2021/04/15 10:50:48;;;;;;;10.83;9.77;;;;;;;4.22;75.22;99040.51;2258436;79;21156;-79
2021/04/15 10:53:49;;;;;;;9.40;8.50;;;;;;;4.19;75.80;99043.85;2258591;79;21092;-79
2021/04/15 10:56:50;;;;;;;9.23;8.23;;;;;;;4.21;75.81;99038.33;2258128;79;21105;-79
2021/04/15 10:59:51;;;;;;;10.87;9.53;;;;;;;4.29;75.87;99041.22;2257908;79;21105;-76
2021/04/15 11:02:53;;;;;;;10.37;9.27;;;;;;;4.34;76.03;99043.20;2258176;79;21057;-79
2021/04/15 11:05:54;;;;;;;11.07;10.07;;;;;;;4.30;75.14;99052.91;2258494;79;21116;-79
2021/04/15 11:08:55;;;;;;;16.07;13.03;;;;;;;4.21;76.07;99044.80;2258381;78;21164;-79
2021/04/15 11:11:56;;;;;;;27.13;17.07;;;;;;;4.30;76.59;99041.69;2228590;79;21136;-79
2021/04/15 11:14:57;;;;;;;31.87;17.17;;;;;;;4.35;76.19;99046.67;2258331;79;21125;-78
2021/04/15 11:17:58;;;;;;;20.67;13.07;;;;;;;4.30;75.99;99042.98;2258518;78;21160;-79
2021/04/15 11:21:00;;;;;;;9.40;8.40;;;;;;;4.35;76.63;99048.84;2258561;78;21101;-78
2021/04/15 11:24:02;;;;;;;11.53;10.00;;;;;;;4.41;75.33;99053.37;2258259;79;21061;-78
2021/04/15 11:27:03;;;;;;;13.23;9.87;;;;;;;4.52;75.75;99048.61;2257923;79;21088;-78
2021/04/15 11:30:04;;;;;;;19.03;12.10;;;;;;;4.59;75.59;99045.45;2257794;79;21167;-78
2021/04/15 11:33:05;;;;;;;25.07;13.80;;;;;;;4.61;75.48;99039.51;2257969;79;21356;-78
2021/04/15 11:36:06;;;;;;;22.40;12.93;;;;;;;4.60;75.58;99045.91;2257772;79;21085;-78
2021/04/15 11:39:08;;;;;;;17.00;11.33;;;;;;;4.55;75.70;99050.02;2257816;78;21069;-77
2021/04/15 11:42:10;;;;;;;12.97;10.13;;;;;;;4.53;75.96;99048.67;2257896;78;21223;-78
2021/04/15 11:45:11;;;;;;;9.90;8.87;;;;;;;4.66;75.64;99043.16;2257924;79;21423;-77
2021/04/15 11:48:12;;;;;;;15.17;11.87;;;;;;;4.66;75.07;99044.86;2258048;79;21077;-79
2021/04/15 11:51:13;;;;;;;15.13;11.10;;;;;;;4.71;75.68;99047.20;2258278;79;21255;-78
2021/04/15 11:54:15;;;;;;;14.97;11.43;;;;;;;4.73;75.94;99041.27;2257927;78;21485;-78
2021/04/15 11:57:16;;;;;;;19.23;12.80;;;;;;;4.71;76.15;99039.45;2257699;79;21128;-78
2021/04/15 12:00:18;;;;;;;17.03;12.57;;;;;;;4.82;75.63;99047.61;2257902;79;21072;-78
2021/04/15 12:03:21;;;;;;;14.93;10.70;;;;;;;5.02;75.37;99042.77;2257279;79;21741;-80
2021/04/15 12:06:22;;;;;;;14.70;11.80;;;;;;;5.00;74.81;99042.70;2257622;79;21065;-78
2021/04/15 12:09:24;;;;;;;16.17;12.07;;;;;;;4.91;75.35;99043.66;2257607;79;21395;-78
2021/04/15 12:12:25;;;;;;;14.27;10.33;;;;;;;4.88;75.70;99048.72;2258051;79;21136;-78
2021/04/15 12:15:26;;;;;;;18.00;12.33;;;;;;;4.82;74.77;99044.61;2258127;79;21140;-79
2021/04/15 12:18:28;;;;;;;16.30;13.43;;;;;;;4.82;75.16;99045.02;2227650;79;21125;-77
2021/04/15 12:21:29;;;;;;;18.97;12.13;;;;;;;4.83;75.80;99048.08;2226281;80;21094;-79
2021/04/15 12:24:32;;;;;;;18.70;12.93;;;;;;;4.86;76.14;99041.31;2226795;79;21093;-79
2021/04/15 12:27:33;;;;;;;10.00;8.93;;;;;;;4.90;75.95;99043.60;2226504;80;21105;-79
2021/04/15 12:30:35;;;;;;;12.23;8.93;;;;;;;4.90;74.86;99040.60;2226218;80;21141;-78
2021/04/15 12:33:36;;;;;;;8.60;7.70;;;;;;;5.04;75.45;99043.70;2226113;80;21224;-78
2021/04/15 12:36:37;;;;;;;10.83;8.70;;;;;;;5.14;75.72;99034.16;2226277;80;21110;-79
2021/04/15 12:39:38;;;;;;;10.00;7.73;;;;;;;5.14;75.72;99034.16;2226086;80;21090;-79
2021/04/15 12:42:39;;;;;;;6.37;5.77;;;;;;;5.36;75.07;99039.71;2226262;80;21102;-79
2021/04/15 12:45:40;;;;;;;7.97;7.03;;;;;;;5.29;73.18;99036.03;2226244;79;21114;-78
2021/04/15 12:48:41;;;;;;;7.87;7.10;;;;;;;5.31;74.29;99040.84;2226106;80;21102;-79
2021/04/15 12:51:42;;;;;;;10.20;8.13;;;;;;;5.49;74.68;99036.73;2226487;80;21089;-79
2021/04/15 12:54:43;;;;;;;17.40;10.20;;;;;;;5.58;74.37;99029.27;2226646;80;21098;-79
2021/04/15 12:57:44;;;;;;;8.93;7.93;;;;;;;5.48;74.00;99032.79;2226435;80;21090;-77
2021/04/15 13:00:45;;;;;;;10.47;7.17;;;;;;;5.46;74.04;99033.15;2226392;80;21101;-79
2021/04/15 13:03:47;;;;;;;6.43;5.80;;;;;;;5.56;73.06;99036.52;2226433;80;21066;-77
2021/04/15 13:06:48;;;;;;;8.57;7.60;;;;;;;5.75;73.53;99032.02;2226427;80;21089;-78
2021/04/15 13:09:49;;;;;;;21.77;13.37;;;;;;;5.79;73.79;99030.41;2225890;80;21170;-78
2021/04/15 13:12:53;;;;;;;19.03;13.23;;;;;;;5.93;73.35;99029.61;2226875;80;21078;-77
2021/04/15 13:15:54;;;;;;;13.57;9.73;;;;;;;5.79;73.51;99026.95;2226597;79;21114;-78
2021/04/15 13:18:55;;;;;;;14.33;10.50;;;;;;;5.79;73.51;99026.95;2257999;79;21089;-78
2021/04/15 13:21:56;;;;;;;8.53;7.43;;;;;;;5.51;73.27;99027.30;2258327;79;21112;-77
2021/04/15 13:24:57;;;;;;;14.07;10.70;;;;;;;5.37;73.96;99025.53;2257893;79;21088;-78
2021/04/15 13:27:58;;;;;;;12.57;9.27;;;;;;;5.38;74.88;99031.17;2257919;79;21319;-79
2021/04/15 13:30:59;;;;;;;6.67;6.03;;;;;;;5.30;74.68;99033.91;2258159;79;21152;-78
2021/04/15 13:34:01;;;;;;;6.60;5.90;;;;;;;5.24;73.29;99028.92;2257871;78;21097;-77
2021/04/15 13:37:02;;;;;;;7.77;6.43;;;;;;;5.26;74.14;99024.69;2257982;78;21481;-76
2021/04/15 13:40:03;;;;;;;11.53;7.60;;;;;;;5.26;74.76;99030.74;2257785;79;21092;-78
2021/04/15 13:43:04;;;;;;;8.07;6.77;;;;;;;5.20;74.89;99024.44;2257824;79;21112;-77
2021/04/15 13:46:05;;;;;;;6.17;5.57;;;;;;;5.13;74.52;99024.63;2257982;79;21132;-78
2021/04/15 13:49:06;;;;;;;10.33;7.87;;;;;;;5.08;74.89;99025.75;2257785;79;21148;-78
2021/04/15 13:52:07;;;;;;;7.40;6.60;;;;;;;5.10;75.33;99025.81;2257785;79;21215;-76
2021/04/15 13:55:08;;;;;;;10.90;9.13;;;;;;;5.09;75.03;99021.05;2257784;79;21093;-78
2021/04/15 13:58:09;;;;;;;9.77;7.97;;;;;;;5.08;75.78;99019.29;2257956;79;21097;-79
2021/04/15 14:01:11;;;;;;;8.90;6.57;;;;;;;5.07;75.16;99027.88;2257944;79;21108;-78
2021/04/15 14:04:12;;;;;;;9.80;6.80;;;;;;;4.90;74.74;99026.37;2257786;79;21077;-78
2021/04/15 14:07:13;;;;;;;10.17;7.23;;;;;;;4.76;75.77;99031.45;2257887;79;21101;-77
2021/04/15 14:10:14;;;;;;;8.30;6.43;;;;;;;4.68;76.06;99034.16;2257968;79;21136;-78
2021/04/15 14:13:15;;;;;;;8.47;7.47;;;;;;;4.61;76.18;99029.16;2257900;79;21116;-77
2021/04/15 14:16:16;;;;;;;16.67;8.77;;;;;;;4.54;76.83;99025.00;2258091;79;21137;-78